Main page
METAR-TAF:

METAR-TAF

Airports :

Kuwait International Airport

Kuwait City, Kuwait

latitude: 29-13N, longitude: 047-59E, elevation: 55 m

Current weather observation

The report was made 13 minutes ago, at 08:00 UTC
Wind 14 kt from the North
Temperature 42°C
Humidity 14%
Pressure 1001 hPa
Visibility 10 km or more
no clouds below 1500 m and no cumulonimbus

METAR: OKBK 250800Z 35014KT CAVOK 42/09 Q1001 NOSIG

Time: 11:13 (08:13 UTC)

Forecast

The report was made 3 hours and 28 minutes ago, at 04:45 UTC
Forecast valid from 25 at 06 UTC to 26 at 12 UTC
Wind 8 kt from the North/Northwest with gusts up to 20 kt
Visibility: 8000 m
Clear sky
Temporary
from 25 at 06 UTC to 25 at 15 UTC
Visibility: 4000 m
Blowing dust

TAF: OKBK 250445Z 2506/2612 34008G20KT 8000 SKC TEMPO 2506/2515 4000 BLDU

Weather observations and forecasts of more than 4000 airports (METAR and TAF reports).

The available stations are represented by yellow and red dots on the map.

Hover mouse over dot to see the name of the station.

Then click to see weather observations and forecasts.

To change the map : click on the green buttons with a black cross to zoom in, on the green button with a dash to zoom out, or on the green arrows for adjacent maps.


METAR-TAF: